sensor_id;sensor_type;location;lat;lon;timestamp;temperature;humidity
7814;DHT22;3952;48.364;16.022;2023-05-10T00:01:10;12.60;99.90
7814;DHT22;3952;48.364;16.022;2023-05-10T00:03:37;12.60;99.90
7814;DHT22;3952;48.364;16.022;2023-05-10T00:06:04;12.60;99.90
7814;DHT22;3952;48.364;16.022;2023-05-10T00:08:31;12.60;99.90
7814;DHT22;3952;48.364;16.022;2023-05-10T00:10:58;12.60;99.90
7814;DHT22;3952;48.364;16.022;2023-05-10T00:13:26;12.50;99.90
7814;DHT22;3952;48.364;16.022;2023-05-10T00:15:53;12.50;99.90
7814;DHT22;3952;48.364;16.022;2023-05-10T00:18:21;12.50;99.90
7814;DHT22;3952;48.364;16.022;2023-05-10T00:20:49;12.50;99.90
7814;DHT22;3952;48.364;16.022;2023-05-10T00:23:16;12.50;99.90
7814;DHT22;3952;48.364;16.022;2023-05-10T00:25:43;12.50;99.90
7814;DHT22;3952;48.364;16.022;2023-05-10T00:28:11;12.50;99.90
7814;DHT22;3952;48.364;16.022;2023-05-10T00:30:38;12.50;99.90
7814;DHT22;3952;48.364;16.022;2023-05-10T00:33:05;12.50;99.90
7814;DHT22;3952;48.364;16.022;2023-05-10T00:35:34;12.50;99.90
7814;DHT22;3952;48.364;16.022;2023-05-10T00:38:01;12.50;99.90
7814;DHT22;3952;48.364;16.022;2023-05-10T00:40:29;12.50;99.90
7814;DHT22;3952;48.364;16.022;2023-05-10T00:42:56;12.40;99.90
7814;DHT22;3952;48.364;16.022;2023-05-10T00:45:24;12.50;99.90
7814;DHT22;3952;48.364;16.022;2023-05-10T00:47:51;12.40;99.90
7814;DHT22;3952;48.364;16.022;2023-05-10T00:50:21;12.40;99.90
7814;DHT22;3952;48.364;16.022;2023-05-10T00:52:50;12.40;99.90
7814;DHT22;3952;48.364;16.022;2023-05-10T00:55:18;12.40;99.90
7814;DHT22;3952;48.364;16.022;2023-05-10T00:57:45;12.40;99.90
7814;DHT22;3952;48.364;16.022;2023-05-10T01:00:13;12.40;99.90
7814;DHT22;3952;48.364;16.022;2023-05-10T01:02:44;12.40;99.90
7814;DHT22;3952;48.364;16.022;2023-05-10T01:05:12;12.40;99.90
7814;DHT22;3952;48.364;16.022;2023-05-10T01:07:39;12.40;99.90
7814;DHT22;3952;48.364;16.022;2023-05-10T01:10:09;12.40;99.90
7814;DHT22;3952;48.364;16.022;2023-05-10T01:12:38;12.40;99.90
7814;DHT22;3952;48.364;16.022;2023-05-10T01:15:08;12.40;99.90
7814;DHT22;3952;48.364;16.022;2023-05-10T01:17:38;12.40;99.90
7814;DHT22;3952;48.364;16.022;2023-05-10T01:20:07;12.30;99.90
7814;DHT22;3952;48.364;16.022;2023-05-10T01:26:01;12.40;99.90
7814;DHT22;3952;48.364;16.022;2023-05-10T01:34:35;12.30;99.90
7814;DHT22;3952;48.364;16.022;2023-05-10T01:37:06;12.20;99.90
7814;DHT22;3952;48.364;16.022;2023-05-10T01:39:41;12.20;99.90
7814;DHT22;3952;48.364;16.022;2023-05-10T01:42:14;12.20;99.90
7814;DHT22;3952;48.364;16.022;2023-05-10T01:44:48;12.20;99.90
7814;DHT22;3952;48.364;16.022;2023-05-10T01:47:20;12.20;99.90
7814;DHT22;3952;48.364;16.022;2023-05-10T01:49:53;12.20;99.90
7814;DHT22;3952;48.364;16.022;2023-05-10T01:52:26;12.20;99.90
7814;DHT22;3952;48.364;16.022;2023-05-10T01:55:01;12.20;99.90
7814;DHT22;3952;48.364;16.022;2023-05-10T01:57:34;12.10;99.90
7814;DHT22;3952;48.364;16.022;2023-05-10T02:00:03;12.10;99.90
7814;DHT22;3952;48.364;16.022;2023-05-10T02:02:33;12.10;99.90
7814;DHT22;3952;48.364;16.022;2023-05-10T02:05:04;12.10;99.90
7814;DHT22;3952;48.364;16.022;2023-05-10T02:07:34;12.10;99.90
7814;DHT22;3952;48.364;16.022;2023-05-10T02:10:03;12.10;99.90
7814;DHT22;3952;48.364;16.022;2023-05-10T02:12:32;12.00;99.90
7814;DHT22;3952;48.364;16.022;2023-05-10T02:15:04;12.00;99.90
7814;DHT22;3952;48.364;16.022;2023-05-10T02:17:32;12.00;99.90
7814;DHT22;3952;48.364;16.022;2023-05-10T02:20:00;12.00;99.90
7814;DHT22;3952;48.364;16.022;2023-05-10T02:22:31;11.90;99.90
7814;DHT22;3952;48.364;16.022;2023-05-10T02:25:01;11.90;99.90
7814;DHT22;3952;48.364;16.022;2023-05-10T02:27:29;11.90;99.90
7814;DHT22;3952;48.364;16.022;2023-05-10T02:30:00;11.90;99.90
7814;DHT22;3952;48.364;16.022;2023-05-10T02:32:29;11.80;99.90
7814;DHT22;3952;48.364;16.022;2023-05-10T02:34:57;11.80;99.90
7814;DHT22;3952;48.364;16.022;2023-05-10T02:37:26;11.80;99.90
7814;DHT22;3952;48.364;16.022;2023-05-10T02:39:55;11.70;99.90
7814;DHT22;3952;48.364;16.022;2023-05-10T02:42:26;11.70;99.90
7814;DHT22;3952;48.364;16.022;2023-05-10T02:44:56;11.70;99.90
7814;DHT22;3952;48.364;16.022;2023-05-10T02:47:26;11.70;99.90
7814;DHT22;3952;48.364;16.022;2023-05-10T02:49:54;11.70;99.90
7814;DHT22;3952;48.364;16.022;2023-05-10T02:52:26;11.60;99.90
7814;DHT22;3952;48.364;16.022;2023-05-10T02:55:00;11.60;99.90
7814;DHT22;3952;48.364;16.022;2023-05-10T02:57:31;11.60;99.90
7814;DHT22;3952;48.364;16.022;2023-05-10T02:59:58;11.60;99.90
7814;DHT22;3952;48.364;16.022;2023-05-10T03:02:26;11.60;99.90
7814;DHT22;3952;48.364;16.022;2023-05-10T03:04:53;11.50;99.90
7814;DHT22;3952;48.364;16.022;2023-05-10T03:07:21;11.50;99.90
7814;DHT22;3952;48.364;16.022;2023-05-10T03:09:48;11.40;99.90
7814;DHT22;3952;48.364;16.022;2023-05-10T03:12:23;11.40;99.90
7814;DHT22;3952;48.364;16.022;2023-05-10T03:15:00;11.40;99.90
7814;DHT22;3952;48.364;16.022;2023-05-10T03:17:33;11.30;99.90
7814;DHT22;3952;48.364;16.022;2023-05-10T03:20:06;11.30;99.90
7814;DHT22;3952;48.364;16.022;2023-05-10T03:22:38;11.20;99.90
7814;DHT22;3952;48.364;16.022;2023-05-10T03:25:08;11.20;99.90
7814;DHT22;3952;48.364;16.022;2023-05-10T03:27:41;11.10;99.90
7814;DHT22;3952;48.364;16.022;2023-05-10T03:30:11;11.10;99.90
7814;DHT22;3952;48.364;16.022;2023-05-10T03:32:39;11.00;99.90
7814;DHT22;3952;48.364;16.022;2023-05-10T03:35:07;10.90;99.90
7814;DHT22;3952;48.364;16.022;2023-05-10T03:37:35;10.80;99.90
7814;DHT22;3952;48.364;16.022;2023-05-10T03:40:03;10.70;99.90
7814;DHT22;3952;48.364;16.022;2023-05-10T03:42:30;10.60;99.90
7814;DHT22;3952;48.364;16.022;2023-05-10T03:44:59;10.50;99.90
7814;DHT22;3952;48.364;16.022;2023-05-10T03:47:26;10.50;99.90
7814;DHT22;3952;48.364;16.022;2023-05-10T03:49:53;10.40;99.90
7814;DHT22;3952;48.364;16.022;2023-05-10T03:52:20;10.30;99.90
7814;DHT22;3952;48.364;16.022;2023-05-10T03:54:47;10.30;99.90
7814;DHT22;3952;48.364;16.022;2023-05-10T03:57:14;10.20;99.90
7814;DHT22;3952;48.364;16.022;2023-05-10T03:59:41;10.20;99.90
7814;DHT22;3952;48.364;16.022;2023-05-10T04:02:10;10.20;99.90
7814;DHT22;3952;48.364;16.022;2023-05-10T04:04:37;10.20;99.90
7814;DHT22;3952;48.364;16.022;2023-05-10T04:07:05;10.20;99.90
7814;DHT22;3952;48.364;16.022;2023-05-10T04:09:32;10.20;99.90
7814;DHT22;3952;48.364;16.022;2023-05-10T04:11:59;10.30;99.90
7814;DHT22;3952;48.364;16.022;2023-05-10T04:14:28;10.40;99.90
7814;DHT22;3952;48.364;16.022;2023-05-10T04:16:55;10.40;99.90
7814;DHT22;3952;48.364;16.022;2023-05-10T04:19:23;10.50;99.90
7814;DHT22;3952;48.364;16.022;2023-05-10T04:21:51;10.50;99.90
7814;DHT22;3952;48.364;16.022;2023-05-10T04:24:18;10.60;99.90
7814;DHT22;3952;48.364;16.022;2023-05-10T04:26:45;10.60;99.90
7814;DHT22;3952;48.364;16.022;2023-05-10T04:29:12;10.60;99.90
7814;DHT22;3952;48.364;16.022;2023-05-10T04:31:39;10.70;99.90
7814;DHT22;3952;48.364;16.022;2023-05-10T04:34:07;10.80;99.90
7814;DHT22;3952;48.364;16.022;2023-05-10T04:36:35;10.90;99.90
7814;DHT22;3952;48.364;16.022;2023-05-10T04:39:03;11.00;99.90
7814;DHT22;3952;48.364;16.022;2023-05-10T04:41:30;11.30;99.90
7814;DHT22;3952;48.364;16.022;2023-05-10T04:43:57;11.50;99.90
7814;DHT22;3952;48.364;16.022;2023-05-10T04:46:24;11.90;99.90
7814;DHT22;3952;48.364;16.022;2023-05-10T04:48:51;12.40;99.90
7814;DHT22;3952;48.364;16.022;2023-05-10T04:51:18;12.90;99.90
7814;DHT22;3952;48.364;16.022;2023-05-10T04:53:47;13.30;99.90
7814;DHT22;3952;48.364;16.022;2023-05-10T04:56:14;13.40;99.90
7814;DHT22;3952;48.364;16.022;2023-05-10T04:58:41;13.40;99.90
7814;DHT22;3952;48.364;16.022;2023-05-10T05:01:09;13.20;99.90
7814;DHT22;3952;48.364;16.022;2023-05-10T05:03:36;12.90;99.90
7814;DHT22;3952;48.364;16.022;2023-05-10T05:06:04;12.70;99.90
7814;DHT22;3952;48.364;16.022;2023-05-10T05:08:31;12.60;99.90
7814;DHT22;3952;48.364;16.022;2023-05-10T05:11:00;12.60;99.90
7814;DHT22;3952;48.364;16.022;2023-05-10T05:13:27;12.60;99.90
7814;DHT22;3952;48.364;16.022;2023-05-10T05:15:54;12.60;99.90
7814;DHT22;3952;48.364;16.022;2023-05-10T05:18:21;12.60;99.90
7814;DHT22;3952;48.364;16.022;2023-05-10T05:20:48;12.50;99.90
7814;DHT22;3952;48.364;16.022;2023-05-10T05:23:16;12.60;99.90
7814;DHT22;3952;48.364;16.022;2023-05-10T05:25:43;12.60;99.90
7814;DHT22;3952;48.364;16.022;2023-05-10T05:28:12;12.60;99.90
7814;DHT22;3952;48.364;16.022;2023-05-10T05:30:39;12.60;99.90
7814;DHT22;3952;48.364;16.022;2023-05-10T05:33:07;12.60;99.90
7814;DHT22;3952;48.364;16.022;2023-05-10T05:35:34;12.70;99.90
7814;DHT22;3952;48.364;16.022;2023-05-10T05:38:01;12.70;99.90
7814;DHT22;3952;48.364;16.022;2023-05-10T05:40:28;12.80;99.90
7814;DHT22;3952;48.364;16.022;2023-05-10T05:42:55;12.90;99.90
7814;DHT22;3952;48.364;16.022;2023-05-10T05:45:24;12.90;99.90
7814;DHT22;3952;48.364;16.022;2023-05-10T05:47:51;13.00;99.90
7814;DHT22;3952;48.364;16.022;2023-05-10T05:50:18;13.10;99.90
7814;DHT22;3952;48.364;16.022;2023-05-10T05:52:46;13.20;99.90
7814;DHT22;3952;48.364;16.022;2023-05-10T05:55:13;13.30;99.90
7814;DHT22;3952;48.364;16.022;2023-05-10T05:57:40;13.40;99.90
7814;DHT22;3952;48.364;16.022;2023-05-10T06:00:08;13.50;99.90
7814;DHT22;3952;48.364;16.022;2023-05-10T06:02:37;13.50;99.90
7814;DHT22;3952;48.364;16.022;2023-05-10T06:05:05;13.50;99.90
7814;DHT22;3952;48.364;16.022;2023-05-10T06:07:33;13.60;99.90
7814;DHT22;3952;48.364;16.022;2023-05-10T06:10:00;13.70;99.90
7814;DHT22;3952;48.364;16.022;2023-05-10T06:12:28;13.90;99.90
7814;DHT22;3952;48.364;16.022;2023-05-10T06:14:55;14.00;99.90
7814;DHT22;3952;48.364;16.022;2023-05-10T06:17:22;14.10;99.90
7814;DHT22;3952;48.364;16.022;2023-05-10T06:19:52;14.20;99.90
7814;DHT22;3952;48.364;16.022;2023-05-10T06:22:19;14.30;99.90
7814;DHT22;3952;48.364;16.022;2023-05-10T06:24:48;14.40;99.90
7814;DHT22;3952;48.364;16.022;2023-05-10T06:27:15;14.60;99.90
7814;DHT22;3952;48.364;16.022;2023-05-10T06:29:42;14.70;99.90
7814;DHT22;3952;48.364;16.022;2023-05-10T06:32:10;14.80;99.90
7814;DHT22;3952;48.364;16.022;2023-05-10T06:34:37;14.90;99.90
7814;DHT22;3952;48.364;16.022;2023-05-10T06:37:06;15.00;99.90
7814;DHT22;3952;48.364;16.022;2023-05-10T06:39:33;15.10;99.90
7814;DHT22;3952;48.364;16.022;2023-05-10T06:42:00;15.30;99.90
7814;DHT22;3952;48.364;16.022;2023-05-10T06:44:28;15.50;99.90
7814;DHT22;3952;48.364;16.022;2023-05-10T06:46:55;15.60;99.90
7814;DHT22;3952;48.364;16.022;2023-05-10T06:49:22;15.80;99.90
7814;DHT22;3952;48.364;16.022;2023-05-10T06:51:50;15.90;99.90
7814;DHT22;3952;48.364;16.022;2023-05-10T06:54:19;16.10;99.90
7814;DHT22;3952;48.364;16.022;2023-05-10T06:56:46;16.30;99.90
7814;DHT22;3952;48.364;16.022;2023-05-10T06:59:13;16.50;99.90
7814;DHT22;3952;48.364;16.022;2023-05-10T07:01:42;16.60;99.90
7814;DHT22;3952;48.364;16.022;2023-05-10T07:04:09;16.80;99.90
7814;DHT22;3952;48.364;16.022;2023-05-10T07:06:36;17.00;99.90
7814;DHT22;3952;48.364;16.022;2023-05-10T07:09:03;17.20;99.90
7814;DHT22;3952;48.364;16.022;2023-05-10T07:11:32;17.30;99.90
7814;DHT22;3952;48.364;16.022;2023-05-10T07:13:59;17.30;99.90
7814;DHT22;3952;48.364;16.022;2023-05-10T07:16:26;17.20;99.90
7814;DHT22;3952;48.364;16.022;2023-05-10T07:18:54;17.20;99.90
7814;DHT22;3952;48.364;16.022;2023-05-10T07:21:21;17.10;99.90
7814;DHT22;3952;48.364;16.022;2023-05-10T07:23:49;17.10;99.90
7814;DHT22;3952;48.364;16.022;2023-05-10T07:26:17;17.10;99.90
7814;DHT22;3952;48.364;16.022;2023-05-10T07:28:45;16.90;99.90
7814;DHT22;3952;48.364;16.022;2023-05-10T07:31:12;16.90;99.90
7814;DHT22;3952;48.364;16.022;2023-05-10T07:33:40;16.90;99.90
7814;DHT22;3952;48.364;16.022;2023-05-10T07:36:07;16.80;99.90
7814;DHT22;3952;48.364;16.022;2023-05-10T07:38:34;16.70;99.90
7814;DHT22;3952;48.364;16.022;2023-05-10T07:41:01;16.60;99.90
7814;DHT22;3952;48.364;16.022;2023-05-10T07:43:28;16.60;99.90
7814;DHT22;3952;48.364;16.022;2023-05-10T07:45:57;16.60;99.90
7814;DHT22;3952;48.364;16.022;2023-05-10T07:48:25;16.60;99.90
7814;DHT22;3952;48.364;16.022;2023-05-10T07:50:53;16.50;99.90
7814;DHT22;3952;48.364;16.022;2023-05-10T07:53:20;16.50;99.90
7814;DHT22;3952;48.364;16.022;2023-05-10T07:55:50;16.50;99.90
7814;DHT22;3952;48.364;16.022;2023-05-10T07:58:18;16.50;99.90
7814;DHT22;3952;48.364;16.022;2023-05-10T08:00:45;16.60;99.90
7814;DHT22;3952;48.364;16.022;2023-05-10T08:03:14;16.60;99.90
7814;DHT22;3952;48.364;16.022;2023-05-10T08:05:41;16.70;99.90
7814;DHT22;3952;48.364;16.022;2023-05-10T08:08:08;16.80;99.90
7814;DHT22;3952;48.364;16.022;2023-05-10T08:10:35;16.90;99.90
7814;DHT22;3952;48.364;16.022;2023-05-10T08:13:03;17.10;99.90
7814;DHT22;3952;48.364;16.022;2023-05-10T08:15:30;17.20;99.90
7814;DHT22;3952;48.364;16.022;2023-05-10T08:17:57;17.60;99.90
7814;DHT22;3952;48.364;16.022;2023-05-10T08:20:26;17.80;99.90
7814;DHT22;3952;48.364;16.022;2023-05-10T08:22:53;17.90;99.90
7814;DHT22;3952;48.364;16.022;2023-05-10T08:25:21;18.00;99.90
7814;DHT22;3952;48.364;16.022;2023-05-10T08:27:48;17.90;99.90
7814;DHT22;3952;48.364;16.022;2023-05-10T08:30:15;17.80;99.90
7814;DHT22;3952;48.364;16.022;2023-05-10T08:32:43;17.80;99.90
7814;DHT22;3952;48.364;16.022;2023-05-10T08:35:10;17.80;99.90
7814;DHT22;3952;48.364;16.022;2023-05-10T08:37:38;17.60;99.80
7814;DHT22;3952;48.364;16.022;2023-05-10T08:40:07;17.50;99.90
7814;DHT22;3952;48.364;16.022;2023-05-10T08:42:36;17.60;99.90
7814;DHT22;3952;48.364;16.022;2023-05-10T08:45:08;17.60;99.90
7814;DHT22;3952;48.364;16.022;2023-05-10T08:47:36;17.70;99.90
7814;DHT22;3952;48.364;16.022;2023-05-10T08:50:06;17.80;99.90
7814;DHT22;3952;48.364;16.022;2023-05-10T08:52:39;17.80;99.90
7814;DHT22;3952;48.364;16.022;2023-05-10T08:55:07;17.80;99.90
7814;DHT22;3952;48.364;16.022;2023-05-10T08:57:36;17.80;99.90
7814;DHT22;3952;48.364;16.022;2023-05-10T09:00:04;17.80;99.90
7814;DHT22;3952;48.364;16.022;2023-05-10T09:02:32;17.80;99.90
7814;DHT22;3952;48.364;16.022;2023-05-10T09:04:59;17.90;99.90
7814;DHT22;3952;48.364;16.022;2023-05-10T09:07:28;18.00;99.90
7814;DHT22;3952;48.364;16.022;2023-05-10T09:09:57;18.10;99.90
7814;DHT22;3952;48.364;16.022;2023-05-10T09:12:25;18.20;99.90
7814;DHT22;3952;48.364;16.022;2023-05-10T09:14:52;18.30;99.90
7814;DHT22;3952;48.364;16.022;2023-05-10T09:17:22;18.40;99.90
7814;DHT22;3952;48.364;16.022;2023-05-10T09:19:50;18.40;99.90
7814;DHT22;3952;48.364;16.022;2023-05-10T09:22:24;18.50;99.90
7814;DHT22;3952;48.364;16.022;2023-05-10T09:25:05;18.60;99.90
7814;DHT22;3952;48.364;16.022;2023-05-10T09:27:33;18.80;99.90
7814;DHT22;3952;48.364;16.022;2023-05-10T09:30:00;19.00;99.90
7814;DHT22;3952;48.364;16.022;2023-05-10T09:32:36;19.10;99.90
7814;DHT22;3952;48.364;16.022;2023-05-10T09:35:08;18.90;99.90
7814;DHT22;3952;48.364;16.022;2023-05-10T09:37:35;18.80;99.90
7814;DHT22;3952;48.364;16.022;2023-05-10T09:40:08;18.90;99.90
7814;DHT22;3952;48.364;16.022;2023-05-10T09:42:38;19.00;99.90
7814;DHT22;3952;48.364;16.022;2023-05-10T09:45:06;19.10;99.90
7814;DHT22;3952;48.364;16.022;2023-05-10T09:47:34;19.10;99.90
7814;DHT22;3952;48.364;16.022;2023-05-10T09:50:02;19.10;99.90
7814;DHT22;3952;48.364;16.022;2023-05-10T09:52:30;19.20;99.90
7814;DHT22;3952;48.364;16.022;2023-05-10T09:54:57;19.30;99.90
7814;DHT22;3952;48.364;16.022;2023-05-10T09:57:26;19.30;99.90
7814;DHT22;3952;48.364;16.022;2023-05-10T09:59:53;19.30;99.90
7814;DHT22;3952;48.364;16.022;2023-05-10T10:02:21;19.10;99.90
7814;DHT22;3952;48.364;16.022;2023-05-10T10:04:55;19.10;99.90
7814;DHT22;3952;48.364;16.022;2023-05-10T10:07:23;18.90;99.90
7814;DHT22;3952;48.364;16.022;2023-05-10T10:09:52;18.80;99.90
7814;DHT22;3952;48.364;16.022;2023-05-10T10:12:20;18.70;99.90
7814;DHT22;3952;48.364;16.022;2023-05-10T10:14:48;18.70;99.90
7814;DHT22;3952;48.364;16.022;2023-05-10T10:17:17;18.70;99.90
7814;DHT22;3952;48.364;16.022;2023-05-10T10:19:45;18.80;99.90
7814;DHT22;3952;48.364;16.022;2023-05-10T10:22:12;18.80;99.90
7814;DHT22;3952;48.364;16.022;2023-05-10T10:24:40;18.80;99.90
7814;DHT22;3952;48.364;16.022;2023-05-10T10:27:24;18.90;99.90
7814;DHT22;3952;48.364;16.022;2023-05-10T10:30:04;19.00;99.90
7814;DHT22;3952;48.364;16.022;2023-05-10T10:32:42;19.10;99.90
7814;DHT22;3952;48.364;16.022;2023-05-10T10:35:12;19.10;99.90
7814;DHT22;3952;48.364;16.022;2023-05-10T10:37:47;19.10;99.90
7814;DHT22;3952;48.364;16.022;2023-05-10T10:40:26;19.20;99.90
7814;DHT22;3952;48.364;16.022;2023-05-10T10:42:53;19.10;99.90
7814;DHT22;3952;48.364;16.022;2023-05-10T10:45:23;19.10;99.90
7814;DHT22;3952;48.364;16.022;2023-05-10T10:48:20;18.90;99.90
7814;DHT22;3952;48.364;16.022;2023-05-10T10:50:51;18.80;99.60
7814;DHT22;3952;48.364;16.022;2023-05-10T10:53:25;18.80;99.90
7814;DHT22;3952;48.364;16.022;2023-05-10T10:56:04;18.90;99.90
7814;DHT22;3952;48.364;16.022;2023-05-10T10:58:32;19.00;99.90
7814;DHT22;3952;48.364;16.022;2023-05-10T11:01:12;19.00;99.60
7814;DHT22;3952;48.364;16.022;2023-05-10T11:03:41;18.90;99.30
7814;DHT22;3952;48.364;16.022;2023-05-10T11:06:08;19.10;99.90
7814;DHT22;3952;48.364;16.022;2023-05-10T11:08:42;19.40;99.90
7814;DHT22;3952;48.364;16.022;2023-05-10T11:11:14;19.60;99.20
7814;DHT22;3952;48.364;16.022;2023-05-10T11:13:43;19.50;99.10
7814;DHT22;3952;48.364;16.022;2023-05-10T11:16:17;19.50;99.70
7814;DHT22;3952;48.364;16.022;2023-05-10T11:18:57;19.60;99.70
7814;DHT22;3952;48.364;16.022;2023-05-10T11:21:25;19.70;98.80
7814;DHT22;3952;48.364;16.022;2023-05-10T11:23:53;19.60;98.20
7814;DHT22;3952;48.364;16.022;2023-05-10T11:26:23;19.60;99.40
7814;DHT22;3952;48.364;16.022;2023-05-10T11:28:53;19.60;99.10
7814;DHT22;3952;48.364;16.022;2023-05-10T11:31:23;19.60;98.30
7814;DHT22;3952;48.364;16.022;2023-05-10T11:33:53;19.60;98.20
7814;DHT22;3952;48.364;16.022;2023-05-10T11:36:23;19.50;98.20
7814;DHT22;3952;48.364;16.022;2023-05-10T11:38:51;19.50;98.30
7814;DHT22;3952;48.364;16.022;2023-05-10T11:41:19;19.50;97.80
7814;DHT22;3952;48.364;16.022;2023-05-10T11:43:49;19.60;98.40
7814;DHT22;3952;48.364;16.022;2023-05-10T11:46:19;19.50;97.90
7814;DHT22;3952;48.364;16.022;2023-05-10T11:48:49;19.50;97.60
7814;DHT22;3952;48.364;16.022;2023-05-10T11:51:20;19.40;97.60
7814;DHT22;3952;48.364;16.022;2023-05-10T11:53:49;19.40;97.90
7814;DHT22;3952;48.364;16.022;2023-05-10T11:56:17;19.50;99.20
7814;DHT22;3952;48.364;16.022;2023-05-10T11:58:44;19.50;97.50
7814;DHT22;3952;48.364;16.022;2023-05-10T12:01:12;19.40;97.60
7814;DHT22;3952;48.364;16.022;2023-05-10T12:03:40;19.50;98.20
7814;DHT22;3952;48.364;16.022;2023-05-10T12:06:09;19.50;97.80
7814;DHT22;3952;48.364;16.022;2023-05-10T12:08:36;19.50;97.00
7814;DHT22;3952;48.364;16.022;2023-05-10T12:11:07;19.40;96.50
7814;DHT22;3952;48.364;16.022;2023-05-10T12:13:38;19.40;96.00
7814;DHT22;3952;48.364;16.022;2023-05-10T12:16:13;19.30;96.40
7814;DHT22;3952;48.364;16.022;2023-05-10T12:18:41;19.30;97.00
7814;DHT22;3952;48.364;16.022;2023-05-10T12:21:12;19.30;96.70
7814;DHT22;3952;48.364;16.022;2023-05-10T12:23:39;19.40;97.30
7814;DHT22;3952;48.364;16.022;2023-05-10T12:26:09;19.50;97.20
7814;DHT22;3952;48.364;16.022;2023-05-10T12:28:37;19.50;97.40
7814;DHT22;3952;48.364;16.022;2023-05-10T12:31:05;19.60;96.20
7814;DHT22;3952;48.364;16.022;2023-05-10T12:33:36;19.50;96.30
7814;DHT22;3952;48.364;16.022;2023-05-10T12:36:06;19.50;96.40
7814;DHT22;3952;48.364;16.022;2023-05-10T12:38:36;19.50;97.20
7814;DHT22;3952;48.364;16.022;2023-05-10T12:41:05;19.50;96.20
7814;DHT22;3952;48.364;16.022;2023-05-10T12:43:33;19.50;96.50
7814;DHT22;3952;48.364;16.022;2023-05-10T12:46:05;19.50;96.90
7814;DHT22;3952;48.364;16.022;2023-05-10T12:48:33;19.60;96.80
7814;DHT22;3952;48.364;16.022;2023-05-10T12:51:01;19.70;96.50
7814;DHT22;3952;48.364;16.022;2023-05-10T12:53:28;19.70;96.60
7814;DHT22;3952;48.364;16.022;2023-05-10T12:55:57;19.70;96.70
7814;DHT22;3952;48.364;16.022;2023-05-10T12:58:24;19.80;96.60
7814;DHT22;3952;48.364;16.022;2023-05-10T13:00:51;19.70;96.90
7814;DHT22;3952;48.364;16.022;2023-05-10T13:03:19;19.80;96.70
7814;DHT22;3952;48.364;16.022;2023-05-10T13:05:46;19.70;96.80
7814;DHT22;3952;48.364;16.022;2023-05-10T13:08:13;19.80;96.30
7814;DHT22;3952;48.364;16.022;2023-05-10T13:10:40;19.70;96.30
7814;DHT22;3952;48.364;16.022;2023-05-10T13:13:09;19.70;97.10
7814;DHT22;3952;48.364;16.022;2023-05-10T13:15:36;19.80;96.80
7814;DHT22;3952;48.364;16.022;2023-05-10T13:18:04;19.80;95.50
7814;DHT22;3952;48.364;16.022;2023-05-10T13:20:31;19.80;94.70
7814;DHT22;3952;48.364;16.022;2023-05-10T13:22:58;19.70;95.20
7814;DHT22;3952;48.364;16.022;2023-05-10T13:25:25;19.70;95.80
7814;DHT22;3952;48.364;16.022;2023-05-10T13:27:52;19.70;95.60
7814;DHT22;3952;48.364;16.022;2023-05-10T13:30:21;19.70;94.90
7814;DHT22;3952;48.364;16.022;2023-05-10T13:32:49;19.60;95.30
7814;DHT22;3952;48.364;16.022;2023-05-10T13:35:16;19.60;94.10
7814;DHT22;3952;48.364;16.022;2023-05-10T13:37:43;19.50;93.80
7814;DHT22;3952;48.364;16.022;2023-05-10T13:40:11;19.50;93.70
7814;DHT22;3952;48.364;16.022;2023-05-10T13:42:39;19.50;93.70
7814;DHT22;3952;48.364;16.022;2023-05-10T13:45:07;19.60;94.30
7814;DHT22;3952;48.364;16.022;2023-05-10T13:47:36;19.60;93.50
7814;DHT22;3952;48.364;16.022;2023-05-10T13:50:03;19.60;94.30
7814;DHT22;3952;48.364;16.022;2023-05-10T13:52:30;19.50;93.30
7814;DHT22;3952;48.364;16.022;2023-05-10T13:54:58;19.50;93.00
7814;DHT22;3952;48.364;16.022;2023-05-10T13:57:25;19.60;92.50
7814;DHT22;3952;48.364;16.022;2023-05-10T13:59:52;19.60;92.20
7814;DHT22;3952;48.364;16.022;2023-05-10T14:02:19;19.60;92.70
7814;DHT22;3952;48.364;16.022;2023-05-10T14:04:48;19.70;92.70
7814;DHT22;3952;48.364;16.022;2023-05-10T14:07:15;19.70;92.00
7814;DHT22;3952;48.364;16.022;2023-05-10T14:09:43;19.60;92.40
7814;DHT22;3952;48.364;16.022;2023-05-10T14:12:10;19.60;92.60
7814;DHT22;3952;48.364;16.022;2023-05-10T14:14:37;19.70;92.80
7814;DHT22;3952;48.364;16.022;2023-05-10T14:17:04;19.70;92.60
7814;DHT22;3952;48.364;16.022;2023-05-10T14:19:32;19.70;93.30
7814;DHT22;3952;48.364;16.022;2023-05-10T14:22:01;19.70;94.00
7814;DHT22;3952;48.364;16.022;2023-05-10T14:24:28;19.70;94.80
7814;DHT22;3952;48.364;16.022;2023-05-10T14:26:55;19.80;95.60
7814;DHT22;3952;48.364;16.022;2023-05-10T14:29:23;19.80;95.90
7814;DHT22;3952;48.364;16.022;2023-05-10T14:31:50;19.80;95.70
7814;DHT22;3952;48.364;16.022;2023-05-10T14:34:17;19.70;96.10
7814;DHT22;3952;48.364;16.022;2023-05-10T14:36:44;19.70;95.90
7814;DHT22;3952;48.364;16.022;2023-05-10T14:39:13;19.60;95.90
7814;DHT22;3952;48.364;16.022;2023-05-10T14:41:40;19.60;95.70
7814;DHT22;3952;48.364;16.022;2023-05-10T14:44:10;19.50;96.20
7814;DHT22;3952;48.364;16.022;2023-05-10T14:46:37;19.50;96.60
7814;DHT22;3952;48.364;16.022;2023-05-10T14:49:05;19.60;97.00
7814;DHT22;3952;48.364;16.022;2023-05-10T14:51:32;19.60;96.30
7814;DHT22;3952;48.364;16.022;2023-05-10T14:53:59;19.60;96.20
7814;DHT22;3952;48.364;16.022;2023-05-10T14:56:28;19.60;96.90
7814;DHT22;3952;48.364;16.022;2023-05-10T14:58:55;19.70;97.10
7814;DHT22;3952;48.364;16.022;2023-05-10T15:01:22;19.60;96.20
7814;DHT22;3952;48.364;16.022;2023-05-10T15:03:50;19.60;95.90
7814;DHT22;3952;48.364;16.022;2023-05-10T15:06:17;19.50;95.20
7814;DHT22;3952;48.364;16.022;2023-05-10T15:08:49;19.50;95.00
7814;DHT22;3952;48.364;16.022;2023-05-10T15:11:17;19.40;94.40
7814;DHT22;3952;48.364;16.022;2023-05-10T15:13:45;19.40;94.80
7814;DHT22;3952;48.364;16.022;2023-05-10T15:16:13;19.30;95.60
7814;DHT22;3952;48.364;16.022;2023-05-10T15:18:40;19.30;94.30
7814;DHT22;3952;48.364;16.022;2023-05-10T15:21:07;19.30;94.20
7814;DHT22;3952;48.364;16.022;2023-05-10T15:23:34;19.30;93.10
7814;DHT22;3952;48.364;16.022;2023-05-10T15:26:01;19.30;94.00
7814;DHT22;3952;48.364;16.022;2023-05-10T15:28:29;19.20;93.50
7814;DHT22;3952;48.364;16.022;2023-05-10T15:30:57;19.20;93.50
7814;DHT22;3952;48.364;16.022;2023-05-10T15:33:26;19.10;93.80
7814;DHT22;3952;48.364;16.022;2023-05-10T15:35:54;19.10;93.20
7814;DHT22;3952;48.364;16.022;2023-05-10T15:38:21;19.10;92.40
7814;DHT22;3952;48.364;16.022;2023-05-10T15:40:48;19.10;93.10
7814;DHT22;3952;48.364;16.022;2023-05-10T15:43:16;19.10;93.30
7814;DHT22;3952;48.364;16.022;2023-05-10T15:45:43;19.10;93.70
7814;DHT22;3952;48.364;16.022;2023-05-10T15:48:11;19.10;94.40
7814;DHT22;3952;48.364;16.022;2023-05-10T15:50:38;19.10;94.30
7814;DHT22;3952;48.364;16.022;2023-05-10T15:53:06;19.00;93.20
7814;DHT22;3952;48.364;16.022;2023-05-10T15:55:33;19.10;92.80
7814;DHT22;3952;48.364;16.022;2023-05-10T15:58:01;19.00;93.40
7814;DHT22;3952;48.364;16.022;2023-05-10T16:00:29;19.00;93.40
7814;DHT22;3952;48.364;16.022;2023-05-10T16:03:02;19.00;93.00